Butternut, Wisconsin
Current Conditions -  °F | °C
As of 12:35 AM on Wednesday 28 Jan 2015 (Local Time) from KPBH Reporting Station
Haze Haze  
Wind Chill: 14°   Ceiling: 700
Heat Index: 23°   Visibility: 5mi
Dew Point: 21°   Wind: 7mph
Humidity: 92%   Direction: 180°S
Pressure: 30.12"   Gusts: NA
Location:  46.01°N, 90.49°W
Report Text: KPBH 280635Z AUTO 18006KT 5SM BR OVC007 M05/M06 A3012 RMK AO2 T10521063
Loading
Personal Weather Stations






























Interactive Weather Map New forecast layout! Learn more

10-Day Weather Forecast

Advertisements
Track Severe Weather on mobile